sensor_id;sensor_type;location;lat;lon;timestamp;P1;durP1;ratioP1;P2;durP2;ratioP2
51190;SDS011;37253;48.736;9.294;2022-09-29T00:00:33;4.80;;;0.80;;
51190;SDS011;37253;48.736;9.294;2022-09-29T00:02:34;3.65;;;1.02;;
51190;SDS011;37253;48.736;9.294;2022-09-29T00:04:34;3.08;;;0.90;;
51190;SDS011;37253;48.736;9.294;2022-09-29T00:06:34;2.22;;;0.90;;
51190;SDS011;37253;48.736;9.294;2022-09-29T00:08:34;3.35;;;1.05;;
51190;SDS011;37253;48.736;9.294;2022-09-29T00:10:38;1.60;;;0.70;;
51190;SDS011;37253;48.736;9.294;2022-09-29T00:12:39;2.42;;;0.80;;
51190;SDS011;37253;48.736;9.294;2022-09-29T00:14:39;2.38;;;0.82;;
51190;SDS011;37253;48.736;9.294;2022-09-29T00:16:40;1.58;;;0.98;;
51190;SDS011;37253;48.736;9.294;2022-09-29T00:18:40;3.40;;;0.95;;
51190;SDS011;37253;48.736;9.294;2022-09-29T00:20:40;1.80;;;0.80;;
51190;SDS011;37253;48.736;9.294;2022-09-29T00:22:40;1.48;;;0.73;;
51190;SDS011;37253;48.736;9.294;2022-09-29T00:24:41;2.70;;;0.95;;
51190;SDS011;37253;48.736;9.294;2022-09-29T00:26:41;2.10;;;0.80;;
51190;SDS011;37253;48.736;9.294;2022-09-29T00:28:48;3.70;;;0.90;;
51190;SDS011;37253;48.736;9.294;2022-09-29T00:30:54;2.95;;;0.90;;
51190;SDS011;37253;48.736;9.294;2022-09-29T00:32:54;2.40;;;0.80;;
51190;SDS011;37253;48.736;9.294;2022-09-29T00:34:55;1.77;;;0.80;;
51190;SDS011;37253;48.736;9.294;2022-09-29T00:36:55;5.28;;;0.80;;
51190;SDS011;37253;48.736;9.294;2022-09-29T00:38:56;3.03;;;0.82;;
51190;SDS011;37253;48.736;9.294;2022-09-29T00:40:57;2.55;;;0.80;;
51190;SDS011;37253;48.736;9.294;2022-09-29T00:42:57;2.55;;;0.70;;
51190;SDS011;37253;48.736;9.294;2022-09-29T00:47:06;1.10;;;0.73;;
51190;SDS011;37253;48.736;9.294;2022-09-29T00:49:09;2.58;;;0.80;;
51190;SDS011;37253;48.736;9.294;2022-09-29T00:51:13;1.55;;;0.70;;
51190;SDS011;37253;48.736;9.294;2022-09-29T00:53:14;1.95;;;0.73;;
51190;SDS011;37253;48.736;9.294;2022-09-29T00:55:25;2.17;;;0.90;;
51190;SDS011;37253;48.736;9.294;2022-09-29T00:57:31;2.53;;;0.90;;
51190;SDS011;37253;48.736;9.294;2022-09-29T00:59:44;1.33;;;0.60;;
51190;SDS011;37253;48.736;9.294;2022-09-29T01:01:49;3.42;;;0.88;;
51190;SDS011;37253;48.736;9.294;2022-09-29T01:03:51;2.50;;;0.93;;
51190;SDS011;37253;48.736;9.294;2022-09-29T01:05:54;1.75;;;1.00;;
51190;SDS011;37253;48.736;9.294;2022-09-29T01:07:59;2.70;;;0.65;;
51190;SDS011;37253;48.736;9.294;2022-09-29T01:10:05;3.10;;;0.90;;
51190;SDS011;37253;48.736;9.294;2022-09-29T01:12:07;1.45;;;0.50;;
51190;SDS011;37253;48.736;9.294;2022-09-29T01:14:08;1.63;;;0.85;;
51190;SDS011;37253;48.736;9.294;2022-09-29T01:16:09;1.85;;;0.82;;
51190;SDS011;37253;48.736;9.294;2022-09-29T01:18:09;2.50;;;0.70;;
51190;SDS011;37253;48.736;9.294;2022-09-29T01:20:11;2.40;;;0.63;;
51190;SDS011;37253;48.736;9.294;2022-09-29T01:22:25;0.98;;;0.63;;
51190;SDS011;37253;48.736;9.294;2022-09-29T01:29:53;1.63;;;0.60;;
51190;SDS011;37253;48.736;9.294;2022-09-29T01:31:56;1.73;;;0.85;;
51190;SDS011;37253;48.736;9.294;2022-09-29T01:38:22;1.95;;;0.73;;
51190;SDS011;37253;48.736;9.294;2022-09-29T01:40:38;3.10;;;0.85;;
51190;SDS011;37253;48.736;9.294;2022-09-29T01:45:10;3.97;;;1.00;;
51190;SDS011;37253;48.736;9.294;2022-09-29T01:47:25;3.17;;;0.70;;
51190;SDS011;37253;48.736;9.294;2022-09-29T01:49:29;3.45;;;0.75;;
51190;SDS011;37253;48.736;9.294;2022-09-29T01:51:35;2.75;;;0.70;;
51190;SDS011;37253;48.736;9.294;2022-09-29T01:53:41;2.65;;;0.70;;
51190;SDS011;37253;48.736;9.294;2022-09-29T01:55:50;1.30;;;0.70;;
51190;SDS011;37253;48.736;9.294;2022-09-29T01:57:53;1.75;;;0.65;;
51190;SDS011;37253;48.736;9.294;2022-09-29T01:59:59;3.10;;;0.82;;
51190;SDS011;37253;48.736;9.294;2022-09-29T02:02:10;3.30;;;0.90;;
51190;SDS011;37253;48.736;9.294;2022-09-29T02:04:15;1.35;;;0.70;;
51190;SDS011;37253;48.736;9.294;2022-09-29T02:06:20;1.98;;;0.63;;
51190;SDS011;37253;48.736;9.294;2022-09-29T02:08:30;1.05;;;0.65;;
51190;SDS011;37253;48.736;9.294;2022-09-29T02:10:35;1.50;;;0.55;;
51190;SDS011;37253;48.736;9.294;2022-09-29T02:12:37;0.90;;;0.60;;
51190;SDS011;37253;48.736;9.294;2022-09-29T02:14:42;1.92;;;0.70;;
51190;SDS011;37253;48.736;9.294;2022-09-29T02:16:47;3.08;;;0.70;;
51190;SDS011;37253;48.736;9.294;2022-09-29T02:18:57;1.45;;;0.70;;
51190;SDS011;37253;48.736;9.294;2022-09-29T02:21:01;1.15;;;0.70;;
51190;SDS011;37253;48.736;9.294;2022-09-29T02:23:02;0.93;;;0.70;;
51190;SDS011;37253;48.736;9.294;2022-09-29T02:25:03;2.67;;;0.52;;
51190;SDS011;37253;48.736;9.294;2022-09-29T02:27:04;3.60;;;0.80;;
51190;SDS011;37253;48.736;9.294;2022-09-29T02:29:04;3.60;;;0.70;;
51190;SDS011;37253;48.736;9.294;2022-09-29T02:31:05;3.47;;;1.05;;
51190;SDS011;37253;48.736;9.294;2022-09-29T02:33:16;1.50;;;0.70;;
51190;SDS011;37253;48.736;9.294;2022-09-29T02:35:17;3.13;;;0.68;;
51190;SDS011;37253;48.736;9.294;2022-09-29T02:37:24;3.78;;;0.77;;
51190;SDS011;37253;48.736;9.294;2022-09-29T02:44:21;1.73;;;0.80;;
51190;SDS011;37253;48.736;9.294;2022-09-29T02:49:11;1.40;;;0.75;;
51190;SDS011;37253;48.736;9.294;2022-09-29T02:51:40;1.50;;;0.77;;
51190;SDS011;37253;48.736;9.294;2022-09-29T02:53:54;1.67;;;0.60;;
51190;SDS011;37253;48.736;9.294;2022-09-29T02:56:04;1.88;;;0.60;;
51190;SDS011;37253;48.736;9.294;2022-09-29T03:00:18;3.28;;;0.70;;
51190;SDS011;37253;48.736;9.294;2022-09-29T03:02:22;3.53;;;0.82;;
51190;SDS011;37253;48.736;9.294;2022-09-29T03:04:26;1.27;;;0.68;;
51190;SDS011;37253;48.736;9.294;2022-09-29T03:06:27;2.50;;;0.60;;
51190;SDS011;37253;48.736;9.294;2022-09-29T03:08:27;2.35;;;0.50;;
51190;SDS011;37253;48.736;9.294;2022-09-29T03:10:28;2.42;;;0.80;;
51190;SDS011;37253;48.736;9.294;2022-09-29T03:12:28;2.47;;;0.80;;
51190;SDS011;37253;48.736;9.294;2022-09-29T03:14:28;1.25;;;0.60;;
51190;SDS011;37253;48.736;9.294;2022-09-29T03:16:29;1.48;;;0.70;;
51190;SDS011;37253;48.736;9.294;2022-09-29T03:18:29;1.48;;;0.90;;
51190;SDS011;37253;48.736;9.294;2022-09-29T03:20:29;1.80;;;0.90;;
51190;SDS011;37253;48.736;9.294;2022-09-29T03:22:29;1.88;;;0.80;;
51190;SDS011;37253;48.736;9.294;2022-09-29T03:24:30;4.05;;;0.60;;
51190;SDS011;37253;48.736;9.294;2022-09-29T03:26:30;1.83;;;0.70;;
51190;SDS011;37253;48.736;9.294;2022-09-29T03:28:31;1.02;;;0.60;;
51190;SDS011;37253;48.736;9.294;2022-09-29T03:30:31;3.28;;;0.70;;
51190;SDS011;37253;48.736;9.294;2022-09-29T03:32:31;0.80;;;0.60;;
51190;SDS011;37253;48.736;9.294;2022-09-29T03:34:32;1.38;;;0.70;;
51190;SDS011;37253;48.736;9.294;2022-09-29T03:36:32;0.90;;;0.55;;
51190;SDS011;37253;48.736;9.294;2022-09-29T03:38:33;2.00;;;0.80;;
51190;SDS011;37253;48.736;9.294;2022-09-29T03:40:34;2.65;;;0.70;;
51190;SDS011;37253;48.736;9.294;2022-09-29T03:42:34;2.00;;;0.88;;
51190;SDS011;37253;48.736;9.294;2022-09-29T03:44:34;0.98;;;0.70;;
51190;SDS011;37253;48.736;9.294;2022-09-29T03:46:35;3.25;;;0.70;;
51190;SDS011;37253;48.736;9.294;2022-09-29T03:48:35;2.08;;;0.70;;
51190;SDS011;37253;48.736;9.294;2022-09-29T03:50:35;1.83;;;0.70;;
51190;SDS011;37253;48.736;9.294;2022-09-29T03:52:36;1.38;;;0.70;;
51190;SDS011;37253;48.736;9.294;2022-09-29T03:54:36;3.47;;;1.05;;
51190;SDS011;37253;48.736;9.294;2022-09-29T03:56:37;1.55;;;0.75;;
51190;SDS011;37253;48.736;9.294;2022-09-29T03:58:37;1.23;;;0.73;;
51190;SDS011;37253;48.736;9.294;2022-09-29T04:00:37;1.42;;;0.65;;
51190;SDS011;37253;48.736;9.294;2022-09-29T04:02:37;3.15;;;0.75;;
51190;SDS011;37253;48.736;9.294;2022-09-29T04:04:38;2.17;;;0.65;;
51190;SDS011;37253;48.736;9.294;2022-09-29T04:06:38;1.88;;;0.80;;
51190;SDS011;37253;48.736;9.294;2022-09-29T04:08:38;2.53;;;0.70;;
51190;SDS011;37253;48.736;9.294;2022-09-29T04:10:39;1.55;;;0.60;;
51190;SDS011;37253;48.736;9.294;2022-09-29T04:12:40;1.10;;;0.70;;
51190;SDS011;37253;48.736;9.294;2022-09-29T04:14:40;2.17;;;0.80;;
51190;SDS011;37253;48.736;9.294;2022-09-29T04:16:40;1.55;;;1.00;;
51190;SDS011;37253;48.736;9.294;2022-09-29T04:18:41;1.08;;;0.60;;
51190;SDS011;37253;48.736;9.294;2022-09-29T04:20:41;0.75;;;0.60;;
51190;SDS011;37253;48.736;9.294;2022-09-29T04:22:42;1.50;;;0.70;;
51190;SDS011;37253;48.736;9.294;2022-09-29T04:24:42;1.08;;;0.60;;
51190;SDS011;37253;48.736;9.294;2022-09-29T04:26:42;1.45;;;0.70;;
51190;SDS011;37253;48.736;9.294;2022-09-29T04:28:43;3.53;;;0.68;;
51190;SDS011;37253;48.736;9.294;2022-09-29T04:30:44;2.20;;;0.70;;
51190;SDS011;37253;48.736;9.294;2022-09-29T04:32:44;0.88;;;0.60;;
51190;SDS011;37253;48.736;9.294;2022-09-29T04:34:44;1.58;;;0.60;;
51190;SDS011;37253;48.736;9.294;2022-09-29T04:36:45;1.42;;;0.68;;
51190;SDS011;37253;48.736;9.294;2022-09-29T04:38:45;1.38;;;0.60;;
51190;SDS011;37253;48.736;9.294;2022-09-29T04:40:46;3.35;;;0.70;;
51190;SDS011;37253;48.736;9.294;2022-09-29T04:42:46;0.85;;;0.60;;
51190;SDS011;37253;48.736;9.294;2022-09-29T04:44:47;1.85;;;0.63;;
51190;SDS011;37253;48.736;9.294;2022-09-29T04:46:50;2.10;;;0.75;;
51190;SDS011;37253;48.736;9.294;2022-09-29T04:48:50;1.70;;;0.82;;
51190;SDS011;37253;48.736;9.294;2022-09-29T04:50:50;2.05;;;0.70;;
51190;SDS011;37253;48.736;9.294;2022-09-29T04:52:51;1.95;;;0.63;;
51190;SDS011;37253;48.736;9.294;2022-09-29T04:54:51;1.30;;;0.68;;
51190;SDS011;37253;48.736;9.294;2022-09-29T04:56:52;2.35;;;0.70;;
51190;SDS011;37253;48.736;9.294;2022-09-29T04:58:52;3.17;;;0.80;;
51190;SDS011;37253;48.736;9.294;2022-09-29T05:00:54;1.63;;;0.68;;
51190;SDS011;37253;48.736;9.294;2022-09-29T05:02:54;1.92;;;0.70;;
51190;SDS011;37253;48.736;9.294;2022-09-29T05:04:55;1.48;;;0.90;;
51190;SDS011;37253;48.736;9.294;2022-09-29T05:06:55;1.13;;;0.57;;
51190;SDS011;37253;48.736;9.294;2022-09-29T05:08:56;2.03;;;0.75;;
51190;SDS011;37253;48.736;9.294;2022-09-29T05:10:56;1.98;;;0.70;;
51190;SDS011;37253;48.736;9.294;2022-09-29T05:12:57;4.88;;;0.95;;
51190;SDS011;37253;48.736;9.294;2022-09-29T05:14:57;2.90;;;0.82;;
51190;SDS011;37253;48.736;9.294;2022-09-29T05:16:58;3.90;;;1.10;;
51190;SDS011;37253;48.736;9.294;2022-09-29T05:18:58;2.45;;;0.98;;
51190;SDS011;37253;48.736;9.294;2022-09-29T05:21:02;7.40;;;1.30;;
51190;SDS011;37253;48.736;9.294;2022-09-29T05:23:06;2.85;;;0.90;;
51190;SDS011;37253;48.736;9.294;2022-09-29T05:25:09;3.35;;;0.80;;
51190;SDS011;37253;48.736;9.294;2022-09-29T05:27:09;5.32;;;0.88;;
51190;SDS011;37253;48.736;9.294;2022-09-29T05:29:09;9.73;;;1.00;;
51190;SDS011;37253;48.736;9.294;2022-09-29T05:31:10;3.08;;;1.00;;
51190;SDS011;37253;48.736;9.294;2022-09-29T05:33:11;4.68;;;0.88;;
51190;SDS011;37253;48.736;9.294;2022-09-29T05:35:11;3.85;;;1.05;;
51190;SDS011;37253;48.736;9.294;2022-09-29T05:37:11;5.65;;;0.98;;
51190;SDS011;37253;48.736;9.294;2022-09-29T05:39:12;2.30;;;0.75;;
51190;SDS011;37253;48.736;9.294;2022-09-29T05:41:13;5.40;;;0.90;;
51190;SDS011;37253;48.736;9.294;2022-09-29T05:43:15;8.50;;;1.00;;
51190;SDS011;37253;48.736;9.294;2022-09-29T05:45:15;3.25;;;0.80;;
51190;SDS011;37253;48.736;9.294;2022-09-29T05:47:16;5.60;;;0.88;;
51190;SDS011;37253;48.736;9.294;2022-09-29T05:49:16;3.63;;;1.08;;
51190;SDS011;37253;48.736;9.294;2022-09-29T05:51:19;5.82;;;1.00;;
51190;SDS011;37253;48.736;9.294;2022-09-29T05:53:21;4.88;;;1.00;;
51190;SDS011;37253;48.736;9.294;2022-09-29T05:55:21;3.95;;;1.23;;
51190;SDS011;37253;48.736;9.294;2022-09-29T05:57:22;7.20;;;0.90;;
51190;SDS011;37253;48.736;9.294;2022-09-29T05:59:22;5.55;;;1.20;;
51190;SDS011;37253;48.736;9.294;2022-09-29T06:01:23;8.73;;;1.02;;
51190;SDS011;37253;48.736;9.294;2022-09-29T06:03:24;7.07;;;1.15;;
51190;SDS011;37253;48.736;9.294;2022-09-29T06:05:25;5.45;;;1.02;;
51190;SDS011;37253;48.736;9.294;2022-09-29T06:07:25;6.13;;;0.98;;
51190;SDS011;37253;48.736;9.294;2022-09-29T06:09:26;6.72;;;1.00;;
51190;SDS011;37253;48.736;9.294;2022-09-29T06:11:27;2.97;;;1.00;;
51190;SDS011;37253;48.736;9.294;2022-09-29T06:13:28;5.07;;;0.90;;
51190;SDS011;37253;48.736;9.294;2022-09-29T06:15:28;6.57;;;1.00;;
51190;SDS011;37253;48.736;9.294;2022-09-29T06:17:29;5.97;;;1.13;;
51190;SDS011;37253;48.736;9.294;2022-09-29T06:19:29;7.57;;;1.00;;
51190;SDS011;37253;48.736;9.294;2022-09-29T06:21:31;2.50;;;0.95;;
51190;SDS011;37253;48.736;9.294;2022-09-29T06:23:33;3.13;;;0.90;;
51190;SDS011;37253;48.736;9.294;2022-09-29T06:25:34;2.70;;;0.90;;
51190;SDS011;37253;48.736;9.294;2022-09-29T06:27:34;5.30;;;0.88;;
51190;SDS011;37253;48.736;9.294;2022-09-29T06:29:35;3.33;;;0.98;;
51190;SDS011;37253;48.736;9.294;2022-09-29T06:31:35;3.63;;;0.95;;
51190;SDS011;37253;48.736;9.294;2022-09-29T06:33:36;2.63;;;0.70;;
51190;SDS011;37253;48.736;9.294;2022-09-29T06:35:37;5.00;;;1.00;;
51190;SDS011;37253;48.736;9.294;2022-09-29T06:37:56;6.25;;;0.98;;
51190;SDS011;37253;48.736;9.294;2022-09-29T06:39:56;5.13;;;0.77;;
51190;SDS011;37253;48.736;9.294;2022-09-29T06:41:56;7.30;;;1.15;;
51190;SDS011;37253;48.736;9.294;2022-09-29T06:43:57;5.10;;;0.95;;
51190;SDS011;37253;48.736;9.294;2022-09-29T06:45:57;2.08;;;0.95;;
51190;SDS011;37253;48.736;9.294;2022-09-29T06:47:58;3.55;;;1.10;;
51190;SDS011;37253;48.736;9.294;2022-09-29T06:49:59;9.05;;;1.05;;
51190;SDS011;37253;48.736;9.294;2022-09-29T06:52:00;4.80;;;0.80;;
51190;SDS011;37253;48.736;9.294;2022-09-29T06:54:01;6.90;;;1.02;;
51190;SDS011;37253;48.736;9.294;2022-09-29T06:56:01;2.35;;;0.90;;
51190;SDS011;37253;48.736;9.294;2022-09-29T06:58:02;6.22;;;1.00;;
51190;SDS011;37253;48.736;9.294;2022-09-29T07:00:02;4.78;;;1.20;;
51190;SDS011;37253;48.736;9.294;2022-09-29T07:02:03;5.25;;;0.93;;
51190;SDS011;37253;48.736;9.294;2022-09-29T07:04:03;6.78;;;1.10;;
51190;SDS011;37253;48.736;9.294;2022-09-29T07:06:04;5.55;;;1.60;;
51190;SDS011;37253;48.736;9.294;2022-09-29T07:08:05;5.75;;;1.00;;
51190;SDS011;37253;48.736;9.294;2022-09-29T07:10:06;6.35;;;1.10;;
51190;SDS011;37253;48.736;9.294;2022-09-29T07:12:06;3.65;;;1.10;;
51190;SDS011;37253;48.736;9.294;2022-09-29T07:14:07;3.40;;;1.08;;
51190;SDS011;37253;48.736;9.294;2022-09-29T07:16:08;4.82;;;1.00;;
51190;SDS011;37253;48.736;9.294;2022-09-29T07:18:09;3.55;;;1.08;;
51190;SDS011;37253;48.736;9.294;2022-09-29T07:20:10;4.53;;;1.20;;
51190;SDS011;37253;48.736;9.294;2022-09-29T07:22:10;7.38;;;0.88;;
51190;SDS011;37253;48.736;9.294;2022-09-29T07:24:10;3.10;;;1.00;;
51190;SDS011;37253;48.736;9.294;2022-09-29T07:26:12;6.13;;;1.20;;
51190;SDS011;37253;48.736;9.294;2022-09-29T07:28:13;3.53;;;1.10;;
51190;SDS011;37253;48.736;9.294;2022-09-29T07:30:13;5.43;;;1.10;;
51190;SDS011;37253;48.736;9.294;2022-09-29T07:32:14;8.07;;;1.10;;
51190;SDS011;37253;48.736;9.294;2022-09-29T07:34:14;1.88;;;0.90;;
51190;SDS011;37253;48.736;9.294;2022-09-29T07:36:15;3.70;;;1.10;;
51190;SDS011;37253;48.736;9.294;2022-09-29T07:38:17;5.35;;;1.30;;
51190;SDS011;37253;48.736;9.294;2022-09-29T07:40:17;5.50;;;1.13;;
51190;SDS011;37253;48.736;9.294;2022-09-29T07:42:19;5.95;;;1.10;;
51190;SDS011;37253;48.736;9.294;2022-09-29T07:44:20;4.45;;;1.10;;
51190;SDS011;37253;48.736;9.294;2022-09-29T07:46:20;2.90;;;1.10;;
51190;SDS011;37253;48.736;9.294;2022-09-29T07:48:21;7.40;;;1.13;;
51190;SDS011;37253;48.736;9.294;2022-09-29T07:50:21;5.30;;;0.90;;
51190;SDS011;37253;48.736;9.294;2022-09-29T07:52:22;1.95;;;0.90;;
51190;SDS011;37253;48.736;9.294;2022-09-29T07:54:22;2.97;;;0.95;;
51190;SDS011;37253;48.736;9.294;2022-09-29T07:56:22;2.50;;;1.00;;
51190;SDS011;37253;48.736;9.294;2022-09-29T07:58:23;3.60;;;1.05;;
51190;SDS011;37253;48.736;9.294;2022-09-29T08:00:23;3.67;;;0.98;;
51190;SDS011;37253;48.736;9.294;2022-09-29T08:02:24;3.60;;;0.80;;
51190;SDS011;37253;48.736;9.294;2022-09-29T08:04:24;2.90;;;0.90;;
51190;SDS011;37253;48.736;9.294;2022-09-29T08:06:25;1.75;;;0.80;;
51190;SDS011;37253;48.736;9.294;2022-09-29T08:08:26;3.83;;;1.20;;
51190;SDS011;37253;48.736;9.294;2022-09-29T08:10:26;5.40;;;0.90;;
51190;SDS011;37253;48.736;9.294;2022-09-29T08:12:27;2.45;;;0.93;;
51190;SDS011;37253;48.736;9.294;2022-09-29T08:14:28;1.63;;;0.70;;
51190;SDS011;37253;48.736;9.294;2022-09-29T08:16:28;3.17;;;1.00;;
51190;SDS011;37253;48.736;9.294;2022-09-29T08:18:29;3.92;;;0.90;;
51190;SDS011;37253;48.736;9.294;2022-09-29T08:20:30;2.08;;;0.80;;
51190;SDS011;37253;48.736;9.294;2022-09-29T08:22:31;2.42;;;0.80;;
51190;SDS011;37253;48.736;9.294;2022-09-29T08:24:31;2.47;;;1.00;;
51190;SDS011;37253;48.736;9.294;2022-09-29T08:26:33;2.38;;;1.10;;
51190;SDS011;37253;48.736;9.294;2022-09-29T08:28:35;2.28;;;0.93;;
51190;SDS011;37253;48.736;9.294;2022-09-29T08:30:36;3.35;;;0.88;;
51190;SDS011;37253;48.736;9.294;2022-09-29T08:32:37;1.55;;;0.70;;
51190;SDS011;37253;48.736;9.294;2022-09-29T08:34:37;4.78;;;0.88;;
51190;SDS011;37253;48.736;9.294;2022-09-29T08:36:38;1.95;;;0.70;;
51190;SDS011;37253;48.736;9.294;2022-09-29T08:38:38;1.88;;;0.80;;
51190;SDS011;37253;48.736;9.294;2022-09-29T08:40:41;2.63;;;0.82;;
51190;SDS011;37253;48.736;9.294;2022-09-29T08:42:44;4.15;;;0.80;;
51190;SDS011;37253;48.736;9.294;2022-09-29T08:44:51;4.88;;;1.00;;
51190;SDS011;37253;48.736;9.294;2022-09-29T08:47:16;1.65;;;0.93;;
51190;SDS011;37253;48.736;9.294;2022-09-29T08:49:36;2.60;;;0.80;;
51190;SDS011;37253;48.736;9.294;2022-09-29T08:51:40;2.95;;;0.80;;
51190;SDS011;37253;48.736;9.294;2022-09-29T08:53:44;2.88;;;0.90;;
51190;SDS011;37253;48.736;9.294;2022-09-29T08:55:46;4.95;;;1.40;;
51190;SDS011;37253;48.736;9.294;2022-09-29T08:57:54;3.03;;;1.08;;
51190;SDS011;37253;48.736;9.294;2022-09-29T08:59:57;3.75;;;1.20;;
51190;SDS011;37253;48.736;9.294;2022-09-29T09:06:36;3.78;;;0.95;;
51190;SDS011;37253;48.736;9.294;2022-09-29T09:15:56;10.18;;;1.70;;
51190;SDS011;37253;48.736;9.294;2022-09-29T09:20:40;3.42;;;1.30;;
51190;SDS011;37253;48.736;9.294;2022-09-29T09:22:59;6.88;;;1.50;;
51190;SDS011;37253;48.736;9.294;2022-09-29T09:25:07;6.88;;;1.65;;
51190;SDS011;37253;48.736;9.294;2022-09-29T09:27:19;8.13;;;1.83;;
51190;SDS011;37253;48.736;9.294;2022-09-29T09:29:32;8.73;;;1.70;;
51190;SDS011;37253;48.736;9.294;2022-09-29T09:31:45;5.88;;;1.65;;
51190;SDS011;37253;48.736;9.294;2022-09-29T09:33:52;4.78;;;1.40;;
51190;SDS011;37253;48.736;9.294;2022-09-29T09:36:19;11.25;;;1.70;;
51190;SDS011;37253;48.736;9.294;2022-09-29T09:38:23;5.82;;;1.42;;
51190;SDS011;37253;48.736;9.294;2022-09-29T09:40:25;7.47;;;1.48;;
51190;SDS011;37253;48.736;9.294;2022-09-29T09:42:35;8.48;;;1.45;;
51190;SDS011;37253;48.736;9.294;2022-09-29T09:44:39;9.13;;;1.90;;
51190;SDS011;37253;48.736;9.294;2022-09-29T09:46:49;12.50;;;1.67;;
51190;SDS011;37253;48.736;9.294;2022-09-29T09:51:00;7.63;;;1.73;;
51190;SDS011;37253;48.736;9.294;2022-09-29T09:53:26;2.47;;;1.42;;
51190;SDS011;37253;48.736;9.294;2022-09-29T09:55:31;9.82;;;1.70;;
51190;SDS011;37253;48.736;9.294;2022-09-29T09:57:38;12.88;;;1.65;;
51190;SDS011;37253;48.736;9.294;2022-09-29T10:02:16;8.43;;;1.52;;
51190;SDS011;37253;48.736;9.294;2022-09-29T10:04:19;8.68;;;1.60;;
51190;SDS011;37253;48.736;9.294;2022-09-29T10:06:20;5.72;;;1.50;;
51190;SDS011;37253;48.736;9.294;2022-09-29T10:10:25;3.80;;;1.10;;
51190;SDS011;37253;48.736;9.294;2022-09-29T10:12:27;6.45;;;1.40;;
51190;SDS011;37253;48.736;9.294;2022-09-29T10:14:28;5.55;;;1.38;;
51190;SDS011;37253;48.736;9.294;2022-09-29T10:16:36;5.82;;;1.48;;
51190;SDS011;37253;48.736;9.294;2022-09-29T10:18:42;5.28;;;1.45;;
51190;SDS011;37253;48.736;9.294;2022-09-29T10:20:47;6.20;;;1.40;;
51190;SDS011;37253;48.736;9.294;2022-09-29T10:22:47;7.07;;;1.40;;
51190;SDS011;37253;48.736;9.294;2022-09-29T10:24:50;5.95;;;1.27;;
51190;SDS011;37253;48.736;9.294;2022-09-29T10:26:57;5.15;;;1.45;;
51190;SDS011;37253;48.736;9.294;2022-09-29T10:29:03;7.10;;;1.67;;
51190;SDS011;37253;48.736;9.294;2022-09-29T10:31:17;5.32;;;1.45;;
51190;SDS011;37253;48.736;9.294;2022-09-29T10:33:20;5.20;;;1.67;;
51190;SDS011;37253;48.736;9.294;2022-09-29T10:35:23;7.13;;;1.52;;
51190;SDS011;37253;48.736;9.294;2022-09-29T10:37:40;6.00;;;1.88;;
51190;SDS011;37253;48.736;9.294;2022-09-29T10:39:44;7.80;;;1.60;;
51190;SDS011;37253;48.736;9.294;2022-09-29T10:41:48;7.45;;;1.70;;
51190;SDS011;37253;48.736;9.294;2022-09-29T10:43:52;6.57;;;1.42;;
51190;SDS011;37253;48.736;9.294;2022-09-29T10:45:53;8.27;;;1.77;;
51190;SDS011;37253;48.736;9.294;2022-09-29T10:52:28;4.75;;;1.45;;
51190;SDS011;37253;48.736;9.294;2022-09-29T10:54:36;7.72;;;1.42;;
51190;SDS011;37253;48.736;9.294;2022-09-29T10:56:37;5.72;;;1.30;;
51190;SDS011;37253;48.736;9.294;2022-09-29T10:58:52;8.32;;;1.40;;
51190;SDS011;37253;48.736;9.294;2022-09-29T11:01:12;3.88;;;1.58;;
51190;SDS011;37253;48.736;9.294;2022-09-29T11:03:24;8.18;;;1.60;;
51190;SDS011;37253;48.736;9.294;2022-09-29T11:05:26;9.48;;;1.40;;
51190;SDS011;37253;48.736;9.294;2022-09-29T11:07:26;8.60;;;1.67;;
51190;SDS011;37253;48.736;9.294;2022-09-29T11:09:28;8.18;;;2.13;;
51190;SDS011;37253;48.736;9.294;2022-09-29T11:11:29;6.60;;;1.58;;
51190;SDS011;37253;48.736;9.294;2022-09-29T11:13:33;7.85;;;1.70;;
51190;SDS011;37253;48.736;9.294;2022-09-29T11:15:39;7.80;;;1.65;;
51190;SDS011;37253;48.736;9.294;2022-09-29T11:17:40;7.70;;;1.60;;
51190;SDS011;37253;48.736;9.294;2022-09-29T11:19:51;6.45;;;1.52;;
51190;SDS011;37253;48.736;9.294;2022-09-29T11:22:05;5.25;;;1.35;;
51190;SDS011;37253;48.736;9.294;2022-09-29T11:27:13;5.97;;;1.67;;
51190;SDS011;37253;48.736;9.294;2022-09-29T11:38:39;7.40;;;1.27;;
51190;SDS011;37253;48.736;9.294;2022-09-29T11:40:40;3.72;;;1.20;;
51190;SDS011;37253;48.736;9.294;2022-09-29T11:42:55;4.45;;;1.52;;
51190;SDS011;37253;48.736;9.294;2022-09-29T11:44:58;14.43;;;1.88;;
51190;SDS011;37253;48.736;9.294;2022-09-29T11:47:17;6.05;;;1.80;;
51190;SDS011;37253;48.736;9.294;2022-09-29T11:54:11;5.28;;;1.55;;
51190;SDS011;37253;48.736;9.294;2022-09-29T11:56:53;9.68;;;1.65;;
51190;SDS011;37253;48.736;9.294;2022-09-29T12:03:43;6.65;;;1.38;;
51190;SDS011;37253;48.736;9.294;2022-09-29T12:10:51;9.85;;;1.40;;
51190;SDS011;37253;48.736;9.294;2022-09-29T12:17:42;4.20;;;1.40;;
51190;SDS011;37253;48.736;9.294;2022-09-29T12:19:46;4.05;;;1.17;;
51190;SDS011;37253;48.736;9.294;2022-09-29T12:21:56;4.88;;;1.42;;
51190;SDS011;37253;48.736;9.294;2022-09-29T12:23:57;5.18;;;1.60;;
51190;SDS011;37253;48.736;9.294;2022-09-29T12:26:10;6.03;;;1.35;;
51190;SDS011;37253;48.736;9.294;2022-09-29T12:28:16;5.15;;;1.30;;
51190;SDS011;37253;48.736;9.294;2022-09-29T12:32:33;4.63;;;1.38;;
51190;SDS011;37253;48.736;9.294;2022-09-29T12:34:46;4.43;;;1.27;;
51190;SDS011;37253;48.736;9.294;2022-09-29T12:37:05;3.75;;;1.20;;
51190;SDS011;37253;48.736;9.294;2022-09-29T12:41:28;4.70;;;1.10;;
51190;SDS011;37253;48.736;9.294;2022-09-29T12:45:56;7.60;;;1.67;;
51190;SDS011;37253;48.736;9.294;2022-09-29T12:48:14;5.10;;;1.40;;
51190;SDS011;37253;48.736;9.294;2022-09-29T12:52:23;3.55;;;1.40;;
51190;SDS011;37253;48.736;9.294;2022-09-29T12:54:30;4.03;;;1.42;;
51190;SDS011;37253;48.736;9.294;2022-09-29T12:56:38;5.88;;;1.60;;
51190;SDS011;37253;48.736;9.294;2022-09-29T12:58:42;6.00;;;1.40;;
51190;SDS011;37253;48.736;9.294;2022-09-29T13:00:45;6.15;;;1.63;;
51190;SDS011;37253;48.736;9.294;2022-09-29T13:07:27;7.35;;;1.40;;
51190;SDS011;37253;48.736;9.294;2022-09-29T13:09:54;4.10;;;1.23;;
51190;SDS011;37253;48.736;9.294;2022-09-29T13:12:11;4.30;;;1.40;;
51190;SDS011;37253;48.736;9.294;2022-09-29T13:14:37;4.65;;;1.30;;
51190;SDS011;37253;48.736;9.294;2022-09-29T13:16:46;2.15;;;1.00;;
51190;SDS011;37253;48.736;9.294;2022-09-29T13:28:31;8.05;;;1.33;;
51190;SDS011;37253;48.736;9.294;2022-09-29T13:30:33;2.42;;;1.10;;
51190;SDS011;37253;48.736;9.294;2022-09-29T13:32:38;5.65;;;1.15;;
51190;SDS011;37253;48.736;9.294;2022-09-29T13:34:44;4.30;;;1.20;;
51190;SDS011;37253;48.736;9.294;2022-09-29T13:36:46;4.93;;;1.15;;
51190;SDS011;37253;48.736;9.294;2022-09-29T13:38:47;3.85;;;1.05;;
51190;SDS011;37253;48.736;9.294;2022-09-29T13:43:35;2.78;;;1.00;;
51190;SDS011;37253;48.736;9.294;2022-09-29T13:52:38;2.70;;;0.90;;
51190;SDS011;37253;48.736;9.294;2022-09-29T13:54:39;4.10;;;1.08;;
51190;SDS011;37253;48.736;9.294;2022-09-29T13:56:41;2.65;;;1.00;;
51190;SDS011;37253;48.736;9.294;2022-09-29T14:00:41;5.07;;;1.33;;
51190;SDS011;37253;48.736;9.294;2022-09-29T14:02:43;4.70;;;1.20;;
51190;SDS011;37253;48.736;9.294;2022-09-29T14:06:50;7.38;;;1.10;;
51190;SDS011;37253;48.736;9.294;2022-09-29T14:09:03;3.33;;;1.10;;
51190;SDS011;37253;48.736;9.294;2022-09-29T14:11:13;2.17;;;1.00;;
51190;SDS011;37253;48.736;9.294;2022-09-29T14:13:20;4.70;;;1.30;;
51190;SDS011;37253;48.736;9.294;2022-09-29T14:18:04;2.28;;;1.20;;
51190;SDS011;37253;48.736;9.294;2022-09-29T14:28:42;7.07;;;1.38;;
51190;SDS011;37253;48.736;9.294;2022-09-29T14:30:44;3.80;;;1.00;;
51190;SDS011;37253;48.736;9.294;2022-09-29T14:35:30;4.70;;;1.02;;
51190;SDS011;37253;48.736;9.294;2022-09-29T14:37:38;2.88;;;1.10;;